Terminal Aerodrome Forecast
Issued by NWS

Home | Current Version | Previous Version | Text Only | Print | Product List | Glossary On
Versions: 1 2 3 4 5 6 7 8 9 10 11 12 13 14 15 16 17 18 19 20 21 22 23 24 25 26 27 28 29 30 31 32 33
000
FTUS43 KGRR 121121
TAFMKG
TAF
KMKG 121121Z 1212/1312 34016KT 6SM -SN BLSN OVC030
      TEMPO 1212/1216 3/4SM -SHSN BLSN OVC025
     FM121600 34020G30KT 1SM -SHSN BLSN OVC020
     FM122000 32014G24KT 4SM -SHSN BLSN OVC025=

USA.gov is the U.S. government's official web portal to all federal, state and local government web resources and services.